createdAt,value
2024-02-29T00:00:22.136Z,96309.40
2024-02-29T00:03:10.343Z,96308.09
2024-02-29T00:05:38.887Z,96306.54
2024-02-29T00:08:07.426Z,96304.92
2024-02-29T00:10:35.491Z,96306.05
2024-02-29T00:13:03.525Z,96307.68
2024-02-29T00:15:31.723Z,96307.76
2024-02-29T00:17:59.897Z,96306.62
2024-02-29T00:20:28.092Z,96306.23
2024-02-29T00:22:56.150Z,96307.93
2024-02-29T00:25:24.343Z,96306.41
2024-02-29T00:27:52.510Z,96306.09
2024-02-29T00:30:21.286Z,96303.20
2024-02-29T00:32:49.420Z,96303.95
2024-02-29T00:35:17.546Z,96303.22
2024-02-29T00:37:46.102Z,96304.12
2024-02-29T00:40:14.463Z,96305.84
2024-02-29T00:42:42.522Z,96304.17
2024-02-29T00:45:10.608Z,96300.02
2024-02-29T00:47:39.290Z,96297.67
2024-02-29T00:50:08.431Z,96298.25
2024-02-29T00:52:36.575Z,96298.29
2024-02-29T00:55:05.521Z,96296.61
2024-02-29T00:57:33.869Z,96294.43
2024-02-29T01:00:02.212Z,96294.23
2024-02-29T01:02:55.417Z,96290.05
2024-02-29T01:05:23.446Z,96293.19
2024-02-29T01:07:51.615Z,96294.81
2024-02-29T01:10:19.883Z,96299.16
2024-02-29T01:12:48.298Z,96299.85
2024-02-29T01:15:16.710Z,96301.88
2024-02-29T01:17:45.148Z,96303.96
2024-02-29T01:20:13.387Z,96303.98
2024-02-29T01:22:41.620Z,96302.04
2024-02-29T01:25:11.386Z,96298.80
2024-02-29T01:27:39.782Z,96297.63
2024-02-29T01:30:08.381Z,96295.55
2024-02-29T01:32:37.870Z,96296.17
2024-02-29T01:35:06.934Z,96293.31
2024-02-29T01:37:35.025Z,96293.35
2024-02-29T01:40:03.451Z,96296.92
2024-02-29T01:42:31.592Z,96294.80
2024-02-29T01:44:59.635Z,96293.43
2024-02-29T01:47:28.126Z,96292.96
2024-02-29T01:50:00.194Z,96292.50
2024-02-29T01:52:30.734Z,96291.52
2024-02-29T01:55:04.165Z,96294.95
2024-02-29T01:57:35.409Z,96294.04
2024-02-29T02:00:05.810Z,96291.52
2024-02-29T02:02:35.506Z,96293.48
2024-02-29T02:05:03.864Z,96293.02
2024-02-29T02:07:33.444Z,96292.06
2024-02-29T02:10:01.774Z,96293.05
2024-02-29T02:12:29.951Z,96292.80
2024-02-29T02:15:03.670Z,96288.45
2024-02-29T02:17:33.584Z,96285.98
2024-02-29T02:20:02.673Z,96286.80
2024-02-29T02:22:31.478Z,96287.02
2024-02-29T02:24:59.525Z,96286.67
2024-02-29T02:27:27.739Z,96288.59
2024-02-29T02:29:57.212Z,96291.09
2024-02-29T02:32:25.311Z,96291.64
2024-02-29T02:34:53.485Z,96288.51
2024-02-29T02:37:21.636Z,96287.11
2024-02-29T02:39:49.744Z,96290.52
2024-02-29T02:42:18.002Z,96290.79
2024-02-29T02:44:45.997Z,96286.00
2024-02-29T02:47:14.015Z,96280.91
2024-02-29T02:49:43.059Z,96286.86
2024-02-29T02:52:11.234Z,96287.20
2024-02-29T02:54:40.713Z,96287.34
2024-02-29T02:57:09.478Z,96291.02
2024-02-29T02:59:37.550Z,96293.13
2024-02-29T03:02:05.598Z,96293.59
2024-02-29T03:04:33.900Z,96293.79
2024-02-29T03:07:01.983Z,96290.27
2024-02-29T03:09:31.908Z,96292.31
2024-02-29T03:12:00.213Z,96291.73
2024-02-29T03:14:28.349Z,96291.14
2024-02-29T03:16:56.926Z,96293.04
2024-02-29T03:19:25.042Z,96291.98
2024-02-29T03:21:53.258Z,96295.13
2024-02-29T03:24:21.407Z,96292.20
2024-02-29T03:26:49.560Z,96290.91
2024-02-29T03:29:17.706Z,96295.15
2024-02-29T03:31:46.720Z,96298.78
2024-02-29T03:34:16.431Z,96301.13
2024-02-29T03:36:44.729Z,96300.55
2024-02-29T03:39:12.838Z,96303.49
2024-02-29T03:41:41.055Z,96303.67
2024-02-29T03:44:09.133Z,96300.52
2024-02-29T03:46:37.199Z,96302.45
2024-02-29T03:49:05.360Z,96301.61
2024-02-29T03:51:34.331Z,96302.30
2024-02-29T03:54:03.543Z,96302.33
2024-02-29T03:56:32.448Z,96307.70
2024-02-29T03:59:00.721Z,96310.70
2024-02-29T04:01:28.802Z,96312.17
2024-02-29T04:03:57.065Z,96312.95
2024-02-29T04:06:25.208Z,96313.20
2024-02-29T04:08:53.424Z,96312.44
2024-02-29T04:11:21.542Z,96312.83
2024-02-29T04:13:49.627Z,96310.34
2024-02-29T04:16:18.451Z,96313.52
2024-02-29T04:18:46.710Z,96317.66
2024-02-29T04:21:14.757Z,96319.52
2024-02-29T04:23:42.814Z,96315.86
2024-02-29T04:26:10.830Z,96314.44
2024-02-29T04:28:39.072Z,96316.29
2024-02-29T04:31:07.235Z,96316.45
2024-02-29T04:33:35.340Z,96317.09
2024-02-29T04:36:03.651Z,96320.16
2024-02-29T04:38:31.777Z,96316.88
2024-02-29T04:40:59.875Z,96317.96
2024-02-29T04:43:28.360Z,96313.84
2024-02-29T04:45:56.758Z,96317.61
2024-02-29T04:48:27.347Z,96318.14
2024-02-29T04:50:55.712Z,96316.62
2024-02-29T04:53:23.826Z,96316.49
2024-02-29T04:55:51.984Z,96316.88
2024-02-29T04:58:20.286Z,96320.90
2024-02-29T05:00:49.748Z,96325.56
2024-02-29T05:03:18.231Z,96329.52
2024-02-29T05:05:46.506Z,96332.40
2024-02-29T05:08:14.534Z,96334.29
2024-02-29T05:10:42.882Z,96337.84
2024-02-29T05:13:11.435Z,96342.20
2024-02-29T05:15:40.439Z,96343.30
2024-02-29T05:18:08.834Z,96345.11
2024-02-29T05:20:37.153Z,96349.27
2024-02-29T05:23:05.457Z,96348.52
2024-02-29T05:25:33.649Z,96349.23
2024-02-29T05:28:03.018Z,96347.53
2024-02-29T05:30:31.056Z,96346.51
2024-02-29T05:32:59.227Z,96344.91
2024-02-29T05:35:27.476Z,96340.70
2024-02-29T05:37:58.481Z,96336.85
2024-02-29T05:40:30.791Z,96342.34
2024-02-29T05:42:59.000Z,96347.92
2024-02-29T05:45:27.065Z,96352.91
2024-02-29T05:47:55.266Z,96353.35
2024-02-29T05:50:23.316Z,96353.70
2024-02-29T05:52:51.426Z,96353.42
2024-02-29T05:55:19.756Z,96350.65
2024-02-29T05:57:47.948Z,96354.57
2024-02-29T06:00:18.697Z,96349.47
2024-02-29T06:02:48.551Z,96351.10
2024-02-29T06:05:19.982Z,96353.29
2024-02-29T06:07:48.524Z,96352.95
2024-02-29T06:10:20.763Z,96355.94
2024-02-29T06:12:55.947Z,96350.98
2024-02-29T06:15:24.192Z,96355.83
2024-02-29T06:17:52.258Z,96356.99
2024-02-29T06:20:20.385Z,96356.52
2024-02-29T06:23:06.280Z,96349.29
2024-02-29T06:25:35.796Z,96348.33
2024-02-29T06:28:04.083Z,96345.59
2024-02-29T06:30:33.892Z,96346.27
2024-02-29T06:33:03.336Z,96345.27
2024-02-29T06:35:32.477Z,96348.72
2024-02-29T06:38:00.511Z,96347.05
2024-02-29T06:40:29.248Z,96347.63
2024-02-29T06:42:57.480Z,96349.45
2024-02-29T06:45:25.766Z,96350.83
2024-02-29T06:47:53.944Z,96350.27
2024-02-29T06:50:22.098Z,96353.11
2024-02-29T06:52:52.344Z,96357.21
2024-02-29T06:55:21.912Z,96357.21
2024-02-29T06:57:52.422Z,96358.66
2024-02-29T07:00:20.647Z,96357.60
2024-02-29T07:02:48.921Z,96359.30
2024-02-29T07:05:17.988Z,96362.15
2024-02-29T07:07:46.709Z,96363.73
2024-02-29T07:10:15.063Z,96368.26
2024-02-29T07:12:43.902Z,96368.38
2024-02-29T07:15:13.809Z,96372.64
2024-02-29T07:17:42.979Z,96374.63
2024-02-29T07:20:17.908Z,96371.64
2024-02-29T07:22:52.546Z,96370.59
2024-02-29T07:25:20.701Z,96372.64
2024-02-29T07:27:50.468Z,96372.77
2024-02-29T07:30:19.851Z,96371.54
2024-02-29T07:32:48.336Z,96377.95
2024-02-29T07:35:19.194Z,96377.90
2024-02-29T07:37:47.792Z,96378.08
2024-02-29T07:40:16.242Z,96378.92
2024-02-29T07:42:44.590Z,96375.20
2024-02-29T07:45:12.768Z,96370.60
2024-02-29T07:47:42.137Z,96368.96
2024-02-29T07:50:11.133Z,96365.89
2024-02-29T07:52:53.109Z,96360.16
2024-02-29T07:55:21.381Z,96350.89
2024-02-29T07:57:49.611Z,96345.13
2024-02-29T08:00:19.145Z,96342.66
2024-02-29T08:02:49.986Z,96336.80
2024-02-29T08:05:18.329Z,96337.75
2024-02-29T08:07:50.899Z,96331.19
2024-02-29T08:10:19.287Z,96328.06
2024-02-29T08:12:47.814Z,96328.50
2024-02-29T08:15:16.393Z,96325.85
2024-02-29T08:17:44.670Z,96326.63
2024-02-29T08:20:12.885Z,96323.95
2024-02-29T08:22:41.183Z,96320.25
2024-02-29T08:25:26.225Z,96318.86
2024-02-29T08:27:55.224Z,96313.02
2024-02-29T08:30:24.467Z,96316.41
2024-02-29T08:32:52.589Z,96313.35
2024-02-29T08:35:20.773Z,96314.91
2024-02-29T08:37:49.156Z,96316.16
2024-02-29T08:40:20.985Z,96320.61
2024-02-29T08:42:49.157Z,96317.13
2024-02-29T08:45:19.802Z,96318.52
2024-02-29T08:47:48.864Z,96316.85
2024-02-29T08:50:17.178Z,96317.34
2024-02-29T08:52:45.492Z,96320.34
2024-02-29T08:55:13.733Z,96322.13
2024-02-29T08:57:41.816Z,96316.92
2024-02-29T09:00:10.920Z,96315.31
2024-02-29T09:02:39.267Z,96309.72
2024-02-29T09:05:07.845Z,96306.85
2024-02-29T09:07:36.099Z,96307.29
2024-02-29T09:10:06.207Z,96305.45
2024-02-29T09:12:35.849Z,96304.63
2024-02-29T09:15:04.450Z,96304.36
2024-02-29T09:17:32.687Z,96301.45
2024-02-29T09:20:01.029Z,96298.45
2024-02-29T09:22:29.277Z,96297.64
2024-02-29T09:24:57.561Z,96301.02
2024-02-29T09:27:25.618Z,96300.97
2024-02-29T09:29:55.461Z,96296.64
2024-02-29T09:32:25.092Z,96289.02
2024-02-29T09:34:53.565Z,96282.70
2024-02-29T09:37:21.913Z,96280.74
2024-02-29T09:39:50.486Z,96276.04
2024-02-29T09:42:18.788Z,96279.08
2024-02-29T09:44:48.554Z,96283.18
2024-02-29T09:47:20.696Z,96279.80
2024-02-29T09:49:51.410Z,96279.36
2024-02-29T09:52:27.533Z,96285.71
2024-02-29T09:54:58.582Z,96286.38
2024-02-29T10:02:17.277Z,96280.86
2024-02-29T10:04:47.820Z,96281.75
2024-02-29T10:07:18.711Z,96281.48
2024-02-29T10:09:47.245Z,96278.27
2024-02-29T10:12:18.558Z,96276.58
2024-02-29T10:15:00.273Z,96264.70
2024-02-29T10:17:33.582Z,96258.83
2024-02-29T10:20:02.037Z,96264.48
2024-02-29T10:22:30.251Z,96270.54
2024-02-29T10:24:58.412Z,96266.87
2024-02-29T10:27:27.168Z,96260.02
2024-02-29T10:30:02.976Z,96257.83
2024-02-29T10:32:33.489Z,96259.77
2024-02-29T10:35:22.157Z,96258.09
2024-02-29T10:37:55.017Z,96256.41
2024-02-29T10:40:27.718Z,96257.34
2024-02-29T10:42:59.492Z,96256.12
2024-02-29T10:45:29.417Z,96253.41
2024-02-29T10:48:18.913Z,96253.85
2024-02-29T10:51:01.602Z,96250.34
2024-02-29T10:54:03.620Z,96244.26
2024-02-29T10:56:34.872Z,96240.15
2024-02-29T10:59:05.452Z,96237.14
2024-02-29T11:01:34.749Z,96241.05
2024-02-29T11:04:04.420Z,96238.20
2024-02-29T11:06:47.761Z,96234.36
2024-02-29T11:09:18.485Z,96235.47
2024-02-29T11:11:48.629Z,96232.77
2024-02-29T11:14:19.039Z,96225.50
2024-02-29T11:16:47.459Z,96227.89
2024-02-29T11:19:19.450Z,96225.67
2024-02-29T11:21:48.036Z,96225.55
2024-02-29T11:24:23.587Z,96230.80
2024-02-29T11:26:57.663Z,96227.66
2024-02-29T11:29:26.447Z,96220.59
2024-02-29T11:31:56.459Z,96218.77
2024-02-29T11:34:25.117Z,96213.92
2024-02-29T11:36:55.004Z,96210.52
2024-02-29T11:39:24.563Z,96214.77
2024-02-29T11:42:08.031Z,96207.61
2024-02-29T11:44:36.299Z,96204.20
2024-02-29T11:47:04.679Z,96195.64
2024-02-29T11:49:46.199Z,96189.67
2024-02-29T11:52:53.784Z,96188.20
2024-02-29T11:55:35.312Z,96193.21
2024-02-29T11:58:03.718Z,96188.94
2024-02-29T12:00:32.145Z,96185.43
2024-02-29T12:03:00.743Z,96185.36
2024-02-29T12:05:28.938Z,96178.70
2024-02-29T12:07:58.293Z,96179.42
2024-02-29T12:10:29.945Z,96176.73
2024-02-29T12:13:08.211Z,96174.19
2024-02-29T12:15:38.718Z,96171.31
2024-02-29T12:18:10.704Z,96169.35
2024-02-29T12:20:39.043Z,96168.38
2024-02-29T12:23:08.591Z,96169.63
2024-02-29T12:25:36.726Z,96169.06
2024-02-29T12:28:06.837Z,96166.95
2024-02-29T12:30:35.830Z,96164.33
2024-02-29T12:33:04.413Z,96159.61
2024-02-29T12:35:33.494Z,96158.36
2024-02-29T12:38:04.728Z,96154.88
2024-02-29T12:40:34.334Z,96153.53
2024-02-29T12:43:02.829Z,96148.37
2024-02-29T12:45:31.171Z,96145.64
2024-02-29T12:48:00.492Z,96144.61
2024-02-29T12:50:37.884Z,96147.44
2024-02-29T12:53:06.048Z,96142.50
2024-02-29T12:55:34.472Z,96139.30
2024-02-29T12:58:04.995Z,96139.67
2024-02-29T13:00:33.939Z,96142.80
2024-02-29T13:03:08.998Z,96140.02
2024-02-29T13:05:46.903Z,96136.81
2024-02-29T13:08:49.330Z,96136.83
2024-02-29T13:11:18.155Z,96136.13
2024-02-29T13:13:48.523Z,96128.93
2024-02-29T13:16:16.646Z,96125.70
2024-02-29T13:18:44.928Z,96120.81
2024-02-29T13:21:18.824Z,96119.11
2024-02-29T13:23:47.079Z,96117.92
2024-02-29T13:26:17.344Z,96114.27
2024-02-29T13:28:46.841Z,96117.05
2024-02-29T13:31:15.396Z,96120.75
2024-02-29T13:33:43.576Z,96121.61
2024-02-29T13:36:11.953Z,96122.50
2024-02-29T13:38:40.448Z,96119.53
2024-02-29T13:41:09.053Z,96122.04
2024-02-29T13:43:37.892Z,96123.77
2024-02-29T13:46:06.645Z,96121.88
2024-02-29T13:48:37.098Z,96124.98
2024-02-29T13:51:06.806Z,96124.16
2024-02-29T13:53:38.455Z,96124.41
2024-02-29T13:56:37.403Z,96120.88
2024-02-29T13:59:08.678Z,96121.98
2024-02-29T14:01:37.027Z,96121.48
2024-02-29T14:04:05.528Z,96117.74
2024-02-29T14:06:34.262Z,96120.17
2024-02-29T14:09:02.819Z,96118.67
2024-02-29T14:11:31.059Z,96112.69
2024-02-29T14:13:59.221Z,96115.70
2024-02-29T14:16:33.727Z,96117.46
2024-02-29T14:19:02.609Z,96117.60
2024-02-29T14:21:30.724Z,96115.09
2024-02-29T14:23:59.255Z,96113.16
2024-02-29T14:26:30.517Z,96115.33
2024-02-29T14:29:00.740Z,96112.05
2024-02-29T14:31:34.621Z,96117.33
2024-02-29T14:34:04.151Z,96117.06
2024-02-29T14:36:36.262Z,96115.37
2024-02-29T14:39:15.324Z,96116.36
2024-02-29T14:41:49.054Z,96117.36
2024-02-29T14:44:17.416Z,96112.44
2024-02-29T14:46:46.571Z,96112.55
2024-02-29T14:49:18.024Z,96114.33
2024-02-29T14:51:46.575Z,96113.88
2024-02-29T14:54:15.891Z,96115.10
2024-02-29T14:56:44.718Z,96112.70
2024-02-29T15:00:07.327Z,96110.94
2024-02-29T15:02:35.506Z,96108.23
2024-02-29T15:05:07.999Z,96109.26
2024-02-29T15:07:37.729Z,96105.02
2024-02-29T15:10:07.734Z,96105.23
2024-02-29T15:12:35.817Z,96103.92
2024-02-29T15:15:05.378Z,96100.02
2024-02-29T15:17:34.456Z,96099.79
2024-02-29T15:20:06.024Z,96104.98
2024-02-29T15:22:34.216Z,96103.45
2024-02-29T15:25:05.293Z,96099.80
2024-02-29T15:27:39.307Z,96092.33
2024-02-29T15:30:08.434Z,96090.38
2024-02-29T15:32:36.856Z,96090.19
2024-02-29T15:35:08.892Z,96085.44
2024-02-29T15:37:37.267Z,96082.13
2024-02-29T15:40:06.148Z,96081.55
2024-02-29T15:42:35.885Z,96076.14
2024-02-29T15:46:01.765Z,96078.70
2024-02-29T15:48:30.736Z,96081.48
2024-02-29T15:50:59.203Z,96079.02
2024-02-29T15:53:27.233Z,96077.80
2024-02-29T15:55:55.465Z,96077.09
2024-02-29T15:58:23.738Z,96075.56
2024-02-29T16:00:51.891Z,96072.66
2024-02-29T16:03:20.053Z,96074.90
2024-02-29T16:05:50.588Z,96076.25
2024-02-29T16:08:20.628Z,96072.89
2024-02-29T16:10:53.069Z,96073.11
2024-02-29T16:13:22.862Z,96077.39
2024-02-29T16:15:54.508Z,96078.92
2024-02-29T16:18:23.447Z,96080.13
2024-02-29T16:20:54.550Z,96080.85
2024-02-29T16:23:25.028Z,96074.48
2024-02-29T16:25:53.116Z,96066.69
2024-02-29T16:28:27.218Z,96064.55
2024-02-29T16:31:01.036Z,96068.19
2024-02-29T16:33:29.292Z,96065.13
2024-02-29T16:36:01.605Z,96060.24
2024-02-29T16:38:30.052Z,96053.44
2024-02-29T16:41:03.685Z,96050.59
2024-02-29T16:43:34.997Z,96056.23
2024-02-29T16:46:09.951Z,96055.64
2024-02-29T16:48:38.537Z,96057.78
2024-02-29T16:51:08.907Z,96057.21
2024-02-29T16:53:37.765Z,96060.58
2024-02-29T16:56:05.992Z,96059.94
2024-02-29T16:58:34.349Z,96057.90
2024-02-29T17:01:02.639Z,96055.20
2024-02-29T17:03:41.732Z,96053.96
2024-02-29T17:06:13.183Z,96054.73
2024-02-29T17:08:41.222Z,96056.65
2024-02-29T17:11:12.705Z,96053.45
2024-02-29T17:13:41.039Z,96055.13
2024-02-29T17:16:09.194Z,96055.92
2024-02-29T17:18:43.155Z,96052.35
2024-02-29T17:21:15.865Z,96050.18
2024-02-29T17:23:49.572Z,96048.66
2024-02-29T17:26:25.629Z,96049.95
2024-02-29T17:28:57.537Z,96053.86
2024-02-29T17:31:31.474Z,96053.08
2024-02-29T17:34:05.818Z,96052.16
2024-02-29T17:36:34.468Z,96046.95
2024-02-29T17:39:04.390Z,96045.75
2024-02-29T17:41:32.963Z,96044.08
2024-02-29T17:44:05.562Z,96040.46
2024-02-29T17:46:33.597Z,96038.95
2024-02-29T17:49:04.236Z,96031.95
2024-02-29T17:51:32.318Z,96028.04
2024-02-29T17:54:05.817Z,96026.14
2024-02-29T17:56:40.341Z,96027.55
2024-02-29T17:59:09.699Z,96030.55
2024-02-29T18:01:42.008Z,96029.61
2024-02-29T18:04:13.875Z,96028.73
2024-02-29T18:06:50.674Z,96032.38
2024-02-29T18:09:23.476Z,96034.98
2024-02-29T18:11:53.809Z,96036.45
2024-02-29T18:14:32.828Z,96034.04
2024-02-29T18:17:01.042Z,96033.15
2024-02-29T18:19:29.574Z,96031.02
2024-02-29T18:22:08.396Z,96027.75
2024-02-29T18:24:43.551Z,96026.15
2024-02-29T18:27:15.515Z,96031.94
2024-02-29T18:29:49.869Z,96029.83
2024-02-29T18:32:24.490Z,96032.16
2024-02-29T18:34:53.428Z,96024.92
2024-02-29T18:37:33.089Z,96016.20
2024-02-29T18:40:03.393Z,96007.79
2024-02-29T18:42:31.752Z,96008.16
2024-02-29T18:45:01.527Z,96015.50
2024-02-29T18:47:29.862Z,96020.85
2024-02-29T18:50:00.799Z,96016.95
2024-02-29T18:52:32.885Z,96011.80
2024-02-29T18:55:08.446Z,96003.02
2024-02-29T18:57:47.068Z,95994.40
2024-02-29T19:00:16.570Z,95993.42
2024-02-29T19:02:45.132Z,95997.90
2024-02-29T19:05:15.513Z,96001.11
2024-02-29T19:07:48.350Z,96001.38
2024-02-29T19:10:26.979Z,96001.08
2024-02-29T19:12:57.009Z,96006.66
2024-02-29T19:15:27.114Z,96006.61
2024-02-29T19:17:55.209Z,96009.71
2024-02-29T19:20:26.690Z,96009.15
2024-02-29T19:22:57.553Z,96011.66
2024-02-29T19:25:25.787Z,96017.70
2024-02-29T19:27:59.039Z,96027.73
2024-02-29T19:30:28.318Z,96034.55
2024-02-29T19:32:56.377Z,96037.93
2024-02-29T19:35:25.216Z,96035.70
2024-02-29T19:37:54.390Z,96035.46
2024-02-29T19:40:22.615Z,96032.50
2024-02-29T19:42:51.042Z,96029.70
2024-02-29T19:45:19.536Z,96038.31
2024-02-29T19:47:51.165Z,96041.55
2024-02-29T19:50:21.590Z,96040.16
2024-02-29T19:52:49.645Z,96045.92
2024-02-29T19:55:17.806Z,96046.16
2024-02-29T19:57:46.088Z,96048.52
2024-02-29T20:00:18.885Z,96051.30
2024-02-29T20:02:49.380Z,96052.16
2024-02-29T20:05:22.241Z,96056.75
2024-02-29T20:07:52.308Z,96052.48
2024-02-29T20:10:23.321Z,96049.54
2024-02-29T20:12:54.085Z,96046.61
2024-02-29T20:15:22.761Z,96043.23
2024-02-29T20:17:54.408Z,96039.10
2024-02-29T20:20:22.655Z,96034.84
2024-02-29T20:22:51.152Z,96031.25
2024-02-29T20:25:24.336Z,96027.05
2024-02-29T20:27:55.359Z,96025.16
2024-02-29T20:30:24.484Z,96023.95
2024-02-29T20:32:52.704Z,96020.09
2024-02-29T20:35:20.906Z,96012.73
2024-02-29T20:37:51.411Z,96007.70
2024-02-29T20:40:20.722Z,96000.88
2024-02-29T20:42:54.328Z,95991.83
2024-02-29T20:45:23.733Z,95982.23
2024-02-29T20:47:52.091Z,95976.92
2024-02-29T20:50:28.384Z,95976.55
2024-02-29T20:52:56.581Z,95964.91
2024-02-29T20:55:28.249Z,95965.14
2024-02-29T20:57:56.299Z,95962.75
2024-02-29T21:00:24.280Z,95961.78
2024-02-29T21:02:55.445Z,95959.83
2024-02-29T21:05:27.425Z,95953.93
2024-02-29T21:08:01.446Z,95948.99
2024-02-29T21:10:36.088Z,95952.38
2024-02-29T21:13:07.122Z,95952.99
2024-02-29T21:15:36.476Z,95948.17
2024-02-29T21:18:07.919Z,95948.15
2024-02-29T21:20:43.784Z,95945.08
2024-02-29T21:23:12.107Z,95946.83
2024-02-29T21:25:43.248Z,95946.09
2024-02-29T21:28:13.011Z,95942.48
2024-02-29T21:30:46.760Z,95943.52
2024-02-29T21:33:38.008Z,95940.41
2024-02-29T21:36:07.503Z,95936.30
2024-02-29T21:38:38.971Z,95940.61
2024-02-29T21:41:08.016Z,95944.27
2024-02-29T21:43:36.315Z,95949.99
2024-02-29T21:46:04.644Z,95944.45
2024-02-29T21:48:32.807Z,95943.75
2024-02-29T21:51:00.796Z,95945.45
2024-02-29T21:53:29.291Z,95950.66
2024-02-29T21:55:57.306Z,95950.80
2024-02-29T21:58:29.852Z,95942.56
2024-02-29T22:01:00.769Z,95938.66
2024-02-29T22:03:32.837Z,95933.69
2024-02-29T22:06:08.645Z,95930.13
2024-02-29T22:08:40.638Z,95929.97
2024-02-29T22:11:14.800Z,95931.83
2024-02-29T22:13:43.217Z,95929.95
2024-02-29T22:16:16.747Z,95924.62
2024-02-29T22:18:47.692Z,95920.15
2024-02-29T22:21:25.550Z,95916.67
2024-02-29T22:23:55.992Z,95911.30
2024-02-29T22:26:27.029Z,95913.66
2024-02-29T22:28:55.003Z,95910.54
2024-02-29T22:31:28.440Z,95911.39
2024-02-29T22:33:58.270Z,95912.86
2024-02-29T22:36:28.030Z,95916.54
2024-02-29T22:38:56.556Z,95907.36
2024-02-29T22:41:24.668Z,95904.67
2024-02-29T22:43:59.611Z,95905.73
2024-02-29T22:46:30.077Z,95903.35
2024-02-29T22:49:00.075Z,95905.66
2024-02-29T22:51:28.260Z,95900.96
2024-02-29T22:53:56.392Z,95899.69
2024-02-29T22:56:31.343Z,95892.45
2024-02-29T22:59:06.058Z,95879.63
2024-02-29T23:01:40.355Z,95865.18
2024-02-29T23:04:09.513Z,95857.63
2024-02-29T23:06:39.029Z,95860.55
2024-02-29T23:09:11.339Z,95850.46
2024-02-29T23:11:40.020Z,95849.81
2024-02-29T23:14:13.140Z,95845.98
2024-02-29T23:16:44.937Z,95844.11
2024-02-29T23:19:15.773Z,95836.77
2024-02-29T23:21:44.026Z,95835.54
2024-02-29T23:24:12.173Z,95839.11
2024-02-29T23:26:40.313Z,95840.13
2024-02-29T23:29:08.527Z,95844.70
2024-02-29T23:31:36.608Z,95841.75
2024-02-29T23:34:05.004Z,95843.18
2024-02-29T23:36:33.141Z,95842.19
2024-02-29T23:39:01.320Z,95839.88
2024-02-29T23:41:29.439Z,95831.65
2024-02-29T23:43:57.642Z,95823.13
2024-02-29T23:46:25.919Z,95816.70
2024-02-29T23:48:54.232Z,95808.81
2024-02-29T23:51:22.487Z,95807.40
2024-02-29T23:53:50.987Z,95809.16
2024-02-29T23:56:19.227Z,95809.86
2024-02-29T23:58:47.402Z,95811.95
